Terminal Aerodrome Forecast
Issued by NWS

Home | Current Version | Previous Version | Text Only | Print | Product List | Glossary On
Versions: 1 2 3 4 5 6 7 8 9 10 11 12 13
664
FTUS44 KEPZ 240537
TAFDMN
TAF
KDMN 240537Z 2406/2506 29012KT P6SM SKC
     FM241800 26022G32KT P6SM FEW080 SCT250
     FM250300 28012KT P6SM FEW080 SCT250=

USA.gov is the U.S. government's official web portal to all federal, state and local government web resources and services.